sensor_id;sensor_type;location;lat;lon;timestamp;pressure;altitude;pressure_sealevel;temperature;humidity
21980;BME280;11154;48.558;9.234;2022-10-19T00:01:43;98477.22;;;15.33;100.00
21980;BME280;11154;48.558;9.234;2022-10-19T00:03:47;98475.16;;;15.19;100.00
21980;BME280;11154;48.558;9.234;2022-10-19T00:05:49;98479.88;;;15.17;100.00
21980;BME280;11154;48.558;9.234;2022-10-19T00:07:51;98490.59;;;15.17;100.00
21980;BME280;11154;48.558;9.234;2022-10-19T00:09:53;98475.69;;;15.15;100.00
21980;BME280;11154;48.558;9.234;2022-10-19T00:11:55;98475.34;;;15.18;100.00
21980;BME280;11154;48.558;9.234;2022-10-19T00:13:59;98470.84;;;15.18;100.00
21980;BME280;11154;48.558;9.234;2022-10-19T00:16:01;98474.84;;;15.14;100.00
21980;BME280;11154;48.558;9.234;2022-10-19T00:18:08;98477.19;;;15.17;100.00
21980;BME280;11154;48.558;9.234;2022-10-19T00:20:10;98478.03;;;15.18;100.00
21980;BME280;11154;48.558;9.234;2022-10-19T00:22:12;98476.34;;;15.17;100.00
21980;BME280;11154;48.558;9.234;2022-10-19T00:24:14;98477.00;;;15.11;100.00
21980;BME280;11154;48.558;9.234;2022-10-19T00:26:16;98469.97;;;15.10;100.00
21980;BME280;11154;48.558;9.234;2022-10-19T00:28:18;98472.16;;;15.07;100.00
21980;BME280;11154;48.558;9.234;2022-10-19T00:30:21;98470.16;;;15.09;100.00
21980;BME280;11154;48.558;9.234;2022-10-19T00:32:22;98469.81;;;15.12;100.00
21980;BME280;11154;48.558;9.234;2022-10-19T00:34:24;98464.09;;;15.07;100.00
21980;BME280;11154;48.558;9.234;2022-10-19T00:36:27;98471.16;;;15.08;100.00
21980;BME280;11154;48.558;9.234;2022-10-19T00:38:29;98476.19;;;15.11;100.00
21980;BME280;11154;48.558;9.234;2022-10-19T00:40:36;98473.50;;;15.11;100.00
21980;BME280;11154;48.558;9.234;2022-10-19T00:42:38;98468.31;;;15.09;100.00
21980;BME280;11154;48.558;9.234;2022-10-19T00:44:59;98474.53;;;15.17;100.00
21980;BME280;11154;48.558;9.234;2022-10-19T00:47:05;98470.16;;;15.16;100.00
21980;BME280;11154;48.558;9.234;2022-10-19T00:49:12;98472.84;;;15.16;100.00
21980;BME280;11154;48.558;9.234;2022-10-19T00:51:16;98474.84;;;15.14;100.00
21980;BME280;11154;48.558;9.234;2022-10-19T00:53:17;98474.00;;;15.14;100.00
21980;BME280;11154;48.558;9.234;2022-10-19T00:55:19;98464.81;;;15.16;100.00
21980;BME280;11154;48.558;9.234;2022-10-19T00:57:21;98468.84;;;15.13;100.00
21980;BME280;11154;48.558;9.234;2022-10-19T00:59:24;98469.66;;;15.13;100.00
21980;BME280;11154;48.558;9.234;2022-10-19T01:01:27;98467.16;;;15.12;100.00
21980;BME280;11154;48.558;9.234;2022-10-19T01:03:31;98471.66;;;15.11;100.00
21980;BME280;11154;48.558;9.234;2022-10-19T01:05:33;98464.28;;;15.13;100.00
21980;BME280;11154;48.558;9.234;2022-10-19T01:07:35;98467.97;;;15.12;100.00
21980;BME280;11154;48.558;9.234;2022-10-19T01:09:37;98463.47;;;15.13;100.00
21980;BME280;11154;48.558;9.234;2022-10-19T01:11:44;98466.13;;;15.05;100.00
21980;BME280;11154;48.558;9.234;2022-10-19T01:14:00;98463.13;;;15.00;100.00
21980;BME280;11154;48.558;9.234;2022-10-19T01:16:12;98460.09;;;15.03;100.00
21980;BME280;11154;48.558;9.234;2022-10-19T01:18:20;98450.88;;;15.05;100.00
21980;BME280;11154;48.558;9.234;2022-10-19T01:20:46;98463.78;;;15.10;100.00
21980;BME280;11154;48.558;9.234;2022-10-19T01:23:03;98461.78;;;15.12;100.00
21980;BME280;11154;48.558;9.234;2022-10-19T01:25:16;98456.44;;;15.12;100.00
21980;BME280;11154;48.558;9.234;2022-10-19T01:27:43;98458.94;;;15.13;100.00
21980;BME280;11154;48.558;9.234;2022-10-19T01:29:59;98454.06;;;15.09;100.00
21980;BME280;11154;48.558;9.234;2022-10-19T01:32:04;98453.06;;;15.10;100.00
21980;BME280;11154;48.558;9.234;2022-10-19T01:34:12;98452.25;;;15.09;100.00
21980;BME280;11154;48.558;9.234;2022-10-19T01:36:22;98454.41;;;15.13;100.00
21980;BME280;11154;48.558;9.234;2022-10-19T01:38:32;98452.75;;;15.13;100.00
21980;BME280;11154;48.558;9.234;2022-10-19T01:40:40;98452.75;;;15.13;100.00
21980;BME280;11154;48.558;9.234;2022-10-19T01:42:45;98443.53;;;15.07;100.00
21980;BME280;11154;48.558;9.234;2022-10-19T01:44:52;98448.22;;;15.05;100.00
21980;BME280;11154;48.558;9.234;2022-10-19T01:46:57;98444.34;;;15.08;100.00
21980;BME280;11154;48.558;9.234;2022-10-19T01:49:06;98444.88;;;15.03;100.00
21980;BME280;11154;48.558;9.234;2022-10-19T01:51:12;98446.03;;;15.01;100.00
21980;BME280;11154;48.558;9.234;2022-10-19T01:53:17;98443.34;;;15.01;100.00
21980;BME280;11154;48.558;9.234;2022-10-19T01:55:21;98442.19;;;14.95;100.00
21980;BME280;11154;48.558;9.234;2022-10-19T01:57:27;98440.69;;;14.93;100.00
21980;BME280;11154;48.558;9.234;2022-10-19T01:59:31;98443.84;;;14.88;100.00
21980;BME280;11154;48.558;9.234;2022-10-19T02:01:36;98434.31;;;14.86;100.00
21980;BME280;11154;48.558;9.234;2022-10-19T02:03:41;98435.63;;;14.90;100.00
21980;BME280;11154;48.558;9.234;2022-10-19T02:05:43;98437.13;;;14.84;100.00
21980;BME280;11154;48.558;9.234;2022-10-19T02:07:49;98440.00;;;14.91;100.00
21980;BME280;11154;48.558;9.234;2022-10-19T02:09:54;98439.31;;;14.89;100.00
21980;BME280;11154;48.558;9.234;2022-10-19T02:11:58;98444.16;;;14.85;100.00
21980;BME280;11154;48.558;9.234;2022-10-19T02:14:04;98441.66;;;14.84;100.00
21980;BME280;11154;48.558;9.234;2022-10-19T02:16:12;98438.50;;;14.88;100.00
21980;BME280;11154;48.558;9.234;2022-10-19T02:18:17;98442.00;;;14.89;100.00
21980;BME280;11154;48.558;9.234;2022-10-19T02:20:23;98436.31;;;14.84;100.00
21980;BME280;11154;48.558;9.234;2022-10-19T02:22:24;98436.66;;;14.81;100.00
21980;BME280;11154;48.558;9.234;2022-10-19T02:24:26;98436.66;;;14.81;100.00
21980;BME280;11154;48.558;9.234;2022-10-19T02:26:27;98445.50;;;14.81;100.00
21980;BME280;11154;48.558;9.234;2022-10-19T02:28:30;98427.09;;;14.78;100.00
21980;BME280;11154;48.558;9.234;2022-10-19T02:30:32;98424.91;;;14.82;100.00
21980;BME280;11154;48.558;9.234;2022-10-19T02:32:34;98421.06;;;14.84;100.00
21980;BME280;11154;48.558;9.234;2022-10-19T02:34:36;98417.41;;;14.93;100.00
21980;BME280;11154;48.558;9.234;2022-10-19T02:36:40;98407.88;;;14.99;100.00
21980;BME280;11154;48.558;9.234;2022-10-19T02:38:42;98423.09;;;14.98;100.00
21980;BME280;11154;48.558;9.234;2022-10-19T02:40:49;98416.06;;;14.97;100.00
21980;BME280;11154;48.558;9.234;2022-10-19T02:42:55;98416.06;;;14.97;100.00
21980;BME280;11154;48.558;9.234;2022-10-19T02:45:04;98418.41;;;15.00;100.00
21980;BME280;11154;48.558;9.234;2022-10-19T02:47:10;98419.59;;;15.06;100.00
21980;BME280;11154;48.558;9.234;2022-10-19T02:49:14;98424.09;;;15.05;100.00
21980;BME280;11154;48.558;9.234;2022-10-19T02:51:29;98424.59;;;15.09;100.00
21980;BME280;11154;48.558;9.234;2022-10-19T02:53:33;98413.06;;;15.08;100.00
21980;BME280;11154;48.558;9.234;2022-10-19T02:55:34;98419.41;;;15.07;100.00
21980;BME280;11154;48.558;9.234;2022-10-19T02:57:36;98410.53;;;15.07;100.00
21980;BME280;11154;48.558;9.234;2022-10-19T02:59:38;98415.06;;;15.06;100.00
21980;BME280;11154;48.558;9.234;2022-10-19T03:01:39;98407.84;;;15.07;100.00
21980;BME280;11154;48.558;9.234;2022-10-19T03:03:41;98400.16;;;15.04;100.00
21980;BME280;11154;48.558;9.234;2022-10-19T03:05:42;98405.16;;;15.07;100.00
21980;BME280;11154;48.558;9.234;2022-10-19T03:07:44;98409.19;;;15.03;100.00
21980;BME280;11154;48.558;9.234;2022-10-19T03:09:47;98410.69;;;14.97;100.00
21980;BME280;11154;48.558;9.234;2022-10-19T03:11:49;98408.69;;;14.99;100.00
21980;BME280;11154;48.558;9.234;2022-10-19T03:13:51;98401.34;;;15.01;100.00
21980;BME280;11154;48.558;9.234;2022-10-19T03:15:52;98400.16;;;15.04;100.00
21980;BME280;11154;48.558;9.234;2022-10-19T03:17:54;98407.84;;;15.07;100.00
21980;BME280;11154;48.558;9.234;2022-10-19T03:19:56;98392.44;;;15.09;100.00
21980;BME280;11154;48.558;9.234;2022-10-19T03:21:58;98398.81;;;15.08;100.00
21980;BME280;11154;48.558;9.234;2022-10-19T03:23:59;98404.53;;;15.05;100.00
21980;BME280;11154;48.558;9.234;2022-10-19T03:26:03;98393.97;;;15.03;100.00
21980;BME280;11154;48.558;9.234;2022-10-19T03:28:05;98388.63;;;15.03;100.00
21980;BME280;11154;48.558;9.234;2022-10-19T03:30:07;98391.44;;;15.02;100.00
21980;BME280;11154;48.558;9.234;2022-10-19T03:32:08;98396.66;;;15.03;100.00
21980;BME280;11154;48.558;9.234;2022-10-19T03:34:10;98397.97;;;14.99;100.00
21980;BME280;11154;48.558;9.234;2022-10-19T03:36:13;98398.47;;;15.03;100.00
21980;BME280;11154;48.558;9.234;2022-10-19T03:38:15;98393.13;;;15.03;100.00
21980;BME280;11154;48.558;9.234;2022-10-19T03:40:17;98388.94;;;15.00;100.00
21980;BME280;11154;48.558;9.234;2022-10-19T03:42:20;98386.09;;;15.02;100.00
21980;BME280;11154;48.558;9.234;2022-10-19T03:44:21;98383.09;;;15.05;100.00
21980;BME280;11154;48.558;9.234;2022-10-19T03:46:23;98384.41;;;15.01;100.00
21980;BME280;11154;48.558;9.234;2022-10-19T03:48:25;98391.81;;;14.99;100.00
21980;BME280;11154;48.558;9.234;2022-10-19T03:50:27;98384.41;;;15.01;100.00
21980;BME280;11154;48.558;9.234;2022-10-19T03:52:28;98391.44;;;15.02;100.00
21980;BME280;11154;48.558;9.234;2022-10-19T03:54:30;98390.94;;;14.98;100.00
21980;BME280;11154;48.558;9.234;2022-10-19T03:56:33;98388.94;;;15.00;100.00
21980;BME280;11154;48.558;9.234;2022-10-19T03:58:37;98386.09;;;15.02;100.00
21980;BME280;11154;48.558;9.234;2022-10-19T04:00:39;98388.25;;;14.98;100.00
21980;BME280;11154;48.558;9.234;2022-10-19T04:02:40;98391.81;;;14.99;100.00
21980;BME280;11154;48.558;9.234;2022-10-19T04:04:42;98396.00;;;15.25;100.00
21980;BME280;11154;48.558;9.234;2022-10-19T04:06:45;98402.69;;;15.21;100.00
21980;BME280;11154;48.558;9.234;2022-10-19T04:08:47;98396.47;;;15.20;100.00
21980;BME280;11154;48.558;9.234;2022-10-19T04:10:49;98391.97;;;15.21;100.00
21980;BME280;11154;48.558;9.234;2022-10-19T04:12:51;98396.81;;;15.17;100.00
21980;BME280;11154;48.558;9.234;2022-10-19T04:14:54;98394.47;;;15.14;100.00
21980;BME280;11154;48.558;9.234;2022-10-19T04:16:55;98395.13;;;15.09;100.00
21980;BME280;11154;48.558;9.234;2022-10-19T04:18:57;98392.44;;;15.09;100.00
21980;BME280;11154;48.558;9.234;2022-10-19T04:21:01;98394.13;;;15.10;100.00
21980;BME280;11154;48.558;9.234;2022-10-19T04:23:03;98393.13;;;15.11;100.00
21980;BME280;11154;48.558;9.234;2022-10-19T04:25:06;98395.81;;;15.11;100.00
21980;BME280;11154;48.558;9.234;2022-10-19T04:27:07;98392.63;;;15.15;100.00
21980;BME280;11154;48.558;9.234;2022-10-19T04:29:09;98392.47;;;15.32;100.00
21980;BME280;11154;48.558;9.234;2022-10-19T04:31:13;98387.44;;;15.37;100.00
21980;BME280;11154;48.558;9.234;2022-10-19T04:33:14;98383.41;;;15.17;100.00
21980;BME280;11154;48.558;9.234;2022-10-19T04:35:16;98377.72;;;14.97;100.00
21980;BME280;11154;48.558;9.234;2022-10-19T04:37:17;98379.91;;;14.77;100.00
21980;BME280;11154;48.558;9.234;2022-10-19T04:39:19;98379.56;;;14.72;100.00
21980;BME280;11154;48.558;9.234;2022-10-19T04:41:21;98383.41;;;14.70;100.00
21980;BME280;11154;48.558;9.234;2022-10-19T04:43:23;98381.41;;;14.72;100.00
21980;BME280;11154;48.558;9.234;2022-10-19T04:45:25;98387.44;;;14.74;100.00
21980;BME280;11154;48.558;9.234;2022-10-19T04:47:28;98386.59;;;14.73;100.00
21980;BME280;11154;48.558;9.234;2022-10-19T04:49:30;98386.75;;;14.72;100.00
21980;BME280;11154;48.558;9.234;2022-10-19T04:51:32;98382.06;;;14.58;100.00
21980;BME280;11154;48.558;9.234;2022-10-19T04:53:34;98381.03;;;14.51;100.00
21980;BME280;11154;48.558;9.234;2022-10-19T04:55:39;98382.56;;;14.45;100.00
21980;BME280;11154;48.558;9.234;2022-10-19T04:57:41;98377.50;;;14.43;100.00
21980;BME280;11154;48.558;9.234;2022-10-19T04:59:42;98379.00;;;14.37;100.00
21980;BME280;11154;48.558;9.234;2022-10-19T05:01:44;98368.81;;;14.33;100.00
21980;BME280;11154;48.558;9.234;2022-10-19T05:03:47;98379.72;;;14.55;100.00
21980;BME280;11154;48.558;9.234;2022-10-19T05:05:52;98386.75;;;14.72;100.00
21980;BME280;11154;48.558;9.234;2022-10-19T05:07:54;98378.88;;;14.78;100.00
21980;BME280;11154;48.558;9.234;2022-10-19T05:09:56;98379.25;;;14.83;100.00
21980;BME280;11154;48.558;9.234;2022-10-19T05:11:57;98380.75;;;14.86;100.00
21980;BME280;11154;48.558;9.234;2022-10-19T05:13:59;98386.75;;;14.88;100.00
21980;BME280;11154;48.558;9.234;2022-10-19T05:16:03;98379.06;;;14.85;100.00
21980;BME280;11154;48.558;9.234;2022-10-19T05:18:05;98379.91;;;14.85;100.00
21980;BME280;11154;48.558;9.234;2022-10-19T05:20:08;98386.25;;;14.92;100.00
21980;BME280;11154;48.558;9.234;2022-10-19T05:22:11;98384.44;;;14.93;100.00
21980;BME280;11154;48.558;9.234;2022-10-19T05:24:12;98377.03;;;14.95;100.00
21980;BME280;11154;48.558;9.234;2022-10-19T05:26:16;98378.56;;;14.97;100.00
21980;BME280;11154;48.558;9.234;2022-10-19T05:28:17;98384.41;;;15.01;100.00
21980;BME280;11154;48.558;9.234;2022-10-19T05:30:19;98386.09;;;15.02;100.00
21980;BME280;11154;48.558;9.234;2022-10-19T05:32:21;98383.59;;;15.08;100.00
21980;BME280;11154;48.558;9.234;2022-10-19T05:34:23;98376.56;;;14.75;100.00
21980;BME280;11154;48.558;9.234;2022-10-19T05:36:27;98375.38;;;14.62;100.00
21980;BME280;11154;48.558;9.234;2022-10-19T05:38:31;98372.34;;;14.57;100.00
21980;BME280;11154;48.558;9.234;2022-10-19T05:40:33;98379.72;;;14.55;100.00
21980;BME280;11154;48.558;9.234;2022-10-19T05:42:34;98378.19;;;14.52;100.00
21980;BME280;11154;48.558;9.234;2022-10-19T05:44:36;98379.19;;;14.43;100.00
21980;BME280;11154;48.558;9.234;2022-10-19T05:46:37;98373.50;;;14.46;100.00
21980;BME280;11154;48.558;9.234;2022-10-19T05:48:39;98374.34;;;14.47;100.00
21980;BME280;11154;48.558;9.234;2022-10-19T05:50:51;98374.34;;;14.47;100.00
21980;BME280;11154;48.558;9.234;2022-10-19T05:52:54;98376.03;;;14.48;100.00
21980;BME280;11154;48.558;9.234;2022-10-19T05:54:55;98380.03;;;14.36;100.00
21980;BME280;11154;48.558;9.234;2022-10-19T05:56:57;98381.00;;;14.35;100.00
21980;BME280;11154;48.558;9.234;2022-10-19T05:59:01;98379.50;;;14.41;100.00
21980;BME280;11154;48.558;9.234;2022-10-19T06:01:03;98378.00;;;14.38;100.00
21980;BME280;11154;48.558;9.234;2022-10-19T06:03:05;98382.84;;;14.35;100.00
21980;BME280;11154;48.558;9.234;2022-10-19T06:05:07;98379.91;;;14.69;100.00
21980;BME280;11154;48.558;9.234;2022-10-19T06:07:08;98390.25;;;14.72;100.00
21980;BME280;11154;48.558;9.234;2022-10-19T06:09:11;98396.50;;;14.81;100.00
21980;BME280;11154;48.558;9.234;2022-10-19T06:11:15;98392.78;;;14.90;100.00
21980;BME280;11154;48.558;9.234;2022-10-19T06:13:17;98394.47;;;14.91;100.00
21980;BME280;11154;48.558;9.234;2022-10-19T06:15:19;98393.66;;;14.90;100.00
21980;BME280;11154;48.558;9.234;2022-10-19T06:17:21;98398.47;;;14.95;100.00
21980;BME280;11154;48.558;9.234;2022-10-19T06:19:22;98399.97;;;14.97;100.00
21980;BME280;11154;48.558;9.234;2022-10-19T06:21:27;98399.66;;;15.00;100.00
21980;BME280;11154;48.558;9.234;2022-10-19T06:23:28;98398.16;;;15.06;100.00
21980;BME280;11154;48.558;9.234;2022-10-19T06:25:32;98399.31;;;15.11;100.00
21980;BME280;11154;48.558;9.234;2022-10-19T06:27:33;98398.81;;;15.15;100.00
21980;BME280;11154;48.558;9.234;2022-10-19T06:29:35;98395.81;;;15.18;100.00
21980;BME280;11154;48.558;9.234;2022-10-19T06:31:37;98400.13;;;15.19;100.00
21980;BME280;11154;48.558;9.234;2022-10-19T06:33:39;98398.34;;;14.96;100.00
21980;BME280;11154;48.558;9.234;2022-10-19T06:35:41;98404.00;;;14.77;100.00
21980;BME280;11154;48.558;9.234;2022-10-19T06:37:43;98409.38;;;14.77;100.00
21980;BME280;11154;48.558;9.234;2022-10-19T06:39:44;98399.47;;;14.78;100.00
21980;BME280;11154;48.558;9.234;2022-10-19T06:41:47;98404.84;;;14.78;100.00
21980;BME280;11154;48.558;9.234;2022-10-19T06:43:50;98411.38;;;14.75;100.00
21980;BME280;11154;48.558;9.234;2022-10-19T06:45:52;98415.72;;;14.76;100.00
21980;BME280;11154;48.558;9.234;2022-10-19T06:47:53;98408.50;;;14.77;100.00
21980;BME280;11154;48.558;9.234;2022-10-19T06:49:55;98409.88;;;14.81;100.00
21980;BME280;11154;48.558;9.234;2022-10-19T06:51:57;98411.53;;;14.82;100.00
21980;BME280;11154;48.558;9.234;2022-10-19T06:53:58;98411.22;;;14.85;100.00
21980;BME280;11154;48.558;9.234;2022-10-19T06:56:02;98408.84;;;14.90;100.00
21980;BME280;11154;48.558;9.234;2022-10-19T06:58:05;98415.72;;;14.92;100.00
21980;BME280;11154;48.558;9.234;2022-10-19T07:00:07;98409.88;;;14.97;100.00
21980;BME280;11154;48.558;9.234;2022-10-19T07:02:10;98410.69;;;14.97;100.00
21980;BME280;11154;48.558;9.234;2022-10-19T07:04:12;98413.22;;;14.99;100.00
21980;BME280;11154;48.558;9.234;2022-10-19T07:06:13;98416.72;;;14.99;100.00
21980;BME280;11154;48.558;9.234;2022-10-19T07:08:15;98421.59;;;14.96;100.00
21980;BME280;11154;48.558;9.234;2022-10-19T07:10:17;98415.72;;;14.92;100.00
21980;BME280;11154;48.558;9.234;2022-10-19T07:12:18;98414.22;;;14.90;100.00
21980;BME280;11154;48.558;9.234;2022-10-19T07:14:21;98419.75;;;14.88;100.00
21980;BME280;11154;48.558;9.234;2022-10-19T07:16:23;98416.72;;;14.91;100.00
21980;BME280;11154;48.558;9.234;2022-10-19T07:18:25;98406.84;;;14.92;100.00
21980;BME280;11154;48.558;9.234;2022-10-19T07:20:27;98408.34;;;14.86;100.00
21980;BME280;11154;48.558;9.234;2022-10-19T07:22:28;98403.66;;;14.80;100.00
21980;BME280;11154;48.558;9.234;2022-10-19T07:24:30;98399.78;;;14.75;100.00
21980;BME280;11154;48.558;9.234;2022-10-19T07:26:32;98406.84;;;14.76;100.00
21980;BME280;11154;48.558;9.234;2022-10-19T07:28:34;98404.31;;;14.74;100.00
21980;BME280;11154;48.558;9.234;2022-10-19T07:30:38;98399.78;;;14.75;100.00
21980;BME280;11154;48.558;9.234;2022-10-19T07:32:39;98398.97;;;14.74;100.00
21980;BME280;11154;48.558;9.234;2022-10-19T07:34:41;98397.28;;;14.73;100.00
21980;BME280;11154;48.558;9.234;2022-10-19T07:36:44;98397.28;;;14.73;100.00
21980;BME280;11154;48.558;9.234;2022-10-19T07:38:47;98389.59;;;14.78;100.00
21980;BME280;11154;48.558;9.234;2022-10-19T07:40:48;98405.34;;;14.81;100.00
21980;BME280;11154;48.558;9.234;2022-10-19T07:42:50;98402.50;;;14.83;100.00
21980;BME280;11154;48.558;9.234;2022-10-19T07:44:51;98402.19;;;14.94;100.00
21980;BME280;11154;48.558;9.234;2022-10-19T07:46:54;98403.03;;;15.02;100.00
21980;BME280;11154;48.558;9.234;2022-10-19T07:48:57;98402.50;;;15.07;100.00
21980;BME280;11154;48.558;9.234;2022-10-19T07:51:00;98403.53;;;15.06;100.00
21980;BME280;11154;48.558;9.234;2022-10-19T07:53:02;98397.13;;;15.07;100.00
21980;BME280;11154;48.558;9.234;2022-10-19T07:55:05;98399.16;;;15.13;100.00
21980;BME280;11154;48.558;9.234;2022-10-19T07:57:06;98407.22;;;15.13;100.00
21980;BME280;11154;48.558;9.234;2022-10-19T07:59:08;98406.19;;;15.13;100.00
21980;BME280;11154;48.558;9.234;2022-10-19T08:01:11;98413.06;;;15.40;100.00
21980;BME280;11154;48.558;9.234;2022-10-19T08:03:15;98414.88;;;15.55;100.00
21980;BME280;11154;48.558;9.234;2022-10-19T08:05:16;98413.03;;;15.48;100.00
21980;BME280;11154;48.558;9.234;2022-10-19T08:07:18;98415.25;;;15.44;100.00
21980;BME280;11154;48.558;9.234;2022-10-19T08:09:19;98413.22;;;15.46;100.00
21980;BME280;11154;48.558;9.234;2022-10-19T08:11:23;98415.41;;;15.51;100.00
21980;BME280;11154;48.558;9.234;2022-10-19T08:13:25;98407.53;;;15.49;100.00
21980;BME280;11154;48.558;9.234;2022-10-19T08:15:28;98406.84;;;15.55;100.00
21980;BME280;11154;48.558;9.234;2022-10-19T08:17:29;98417.88;;;15.60;100.00
21980;BME280;11154;48.558;9.234;2022-10-19T08:19:32;98413.84;;;15.64;100.00
21980;BME280;11154;48.558;9.234;2022-10-19T08:21:36;98416.53;;;15.64;100.00
21980;BME280;11154;48.558;9.234;2022-10-19T08:23:38;98409.16;;;15.66;100.00
21980;BME280;11154;48.558;9.234;2022-10-19T08:25:40;98406.59;;;15.81;100.00
21980;BME280;11154;48.558;9.234;2022-10-19T08:27:42;98408.75;;;15.93;100.00
21980;BME280;11154;48.558;9.234;2022-10-19T08:29:43;98408.78;;;15.85;100.00
21980;BME280;11154;48.558;9.234;2022-10-19T08:31:46;98400.59;;;15.79;100.00
21980;BME280;11154;48.558;9.234;2022-10-19T08:33:49;98400.75;;;15.77;100.00
21980;BME280;11154;48.558;9.234;2022-10-19T08:35:52;98395.56;;;15.76;100.00
21980;BME280;11154;48.558;9.234;2022-10-19T08:37:54;98399.75;;;15.78;100.00
21980;BME280;11154;48.558;9.234;2022-10-19T08:39:55;98401.72;;;15.84;100.00
21980;BME280;11154;48.558;9.234;2022-10-19T08:42:01;98397.16;;;15.92;100.00
21980;BME280;11154;48.558;9.234;2022-10-19T08:44:18;98403.69;;;15.98;100.00
21980;BME280;11154;48.558;9.234;2022-10-19T08:46:24;98399.66;;;16.02;100.00
21980;BME280;11154;48.558;9.234;2022-10-19T08:48:33;98402.50;;;16.08;100.00
21980;BME280;11154;48.558;9.234;2022-10-19T08:50:39;98388.88;;;16.10;100.00
21980;BME280;11154;48.558;9.234;2022-10-19T08:52:44;98395.41;;;16.15;100.00
21980;BME280;11154;48.558;9.234;2022-10-19T08:54:50;98388.84;;;16.18;100.00
21980;BME280;11154;48.558;9.234;2022-10-19T08:56:59;98387.53;;;16.14;100.00
21980;BME280;11154;48.558;9.234;2022-10-19T08:59:12;98391.34;;;16.19;100.00
21980;BME280;11154;48.558;9.234;2022-10-19T09:01:22;98393.03;;;16.20;100.00
21980;BME280;11154;48.558;9.234;2022-10-19T09:03:32;98390.16;;;16.22;100.00
21980;BME280;11154;48.558;9.234;2022-10-19T09:05:40;98383.97;;;16.21;100.00
21980;BME280;11154;48.558;9.234;2022-10-19T09:07:50;98388.34;;;16.22;100.00
21980;BME280;11154;48.558;9.234;2022-10-19T09:09:55;98379.28;;;16.23;100.00
21980;BME280;11154;48.558;9.234;2022-10-19T09:12:04;98379.28;;;16.23;100.00
21980;BME280;11154;48.558;9.234;2022-10-19T09:14:12;98378.75;;;16.28;100.00
21980;BME280;11154;48.558;9.234;2022-10-19T09:16:18;98377.03;;;16.35;100.00
21980;BME280;11154;48.558;9.234;2022-10-19T09:18:23;98380.59;;;16.35;100.00
21980;BME280;11154;48.558;9.234;2022-10-19T09:20:31;98378.06;;;16.34;100.00
21980;BME280;11154;48.558;9.234;2022-10-19T09:22:35;98374.84;;;16.38;100.00
21980;BME280;11154;48.558;9.234;2022-10-19T09:24:41;98370.34;;;16.39;100.00
21980;BME280;11154;48.558;9.234;2022-10-19T09:26:51;98376.00;;;16.44;100.00
21980;BME280;11154;48.558;9.234;2022-10-19T09:28:57;98370.94;;;16.49;100.00
21980;BME280;11154;48.558;9.234;2022-10-19T09:31:00;98372.25;;;16.53;100.00
21980;BME280;11154;48.558;9.234;2022-10-19T09:33:02;98362.81;;;16.57;100.00
21980;BME280;11154;48.558;9.234;2022-10-19T09:35:06;98361.44;;;16.61;100.00
21980;BME280;11154;48.558;9.234;2022-10-19T09:37:19;98361.09;;;16.63;100.00
21980;BME280;11154;48.558;9.234;2022-10-19T09:39:22;98365.09;;;16.67;100.00
21980;BME280;11154;48.558;9.234;2022-10-19T09:41:25;98363.25;;;16.68;100.00
21980;BME280;11154;48.558;9.234;2022-10-19T09:43:27;98357.69;;;16.69;100.00
21980;BME280;11154;48.558;9.234;2022-10-19T09:45:37;98358.00;;;16.74;100.00
21980;BME280;11154;48.558;9.234;2022-10-19T09:47:44;98354.25;;;16.83;100.00
21980;BME280;11154;48.558;9.234;2022-10-19T09:49:48;98355.53;;;16.87;100.00
21980;BME280;11154;48.558;9.234;2022-10-19T09:51:51;98354.81;;;16.93;100.00
21980;BME280;11154;48.558;9.234;2022-10-19T09:53:54;98353.28;;;16.99;100.00
21980;BME280;11154;48.558;9.234;2022-10-19T09:55:58;98353.19;;;17.07;100.00
21980;BME280;11154;48.558;9.234;2022-10-19T09:58:04;98347.66;;;17.08;100.00
21980;BME280;11154;48.558;9.234;2022-10-19T10:00:16;98360.53;;;17.13;100.00
21980;BME280;11154;48.558;9.234;2022-10-19T10:02:20;98349.59;;;17.14;100.00
21980;BME280;11154;48.558;9.234;2022-10-19T10:04:22;98356.66;;;17.15;100.00
21980;BME280;11154;48.558;9.234;2022-10-19T10:06:24;98358.13;;;17.18;100.00
21980;BME280;11154;48.558;9.234;2022-10-19T10:08:28;98344.97;;;17.23;100.00
21980;BME280;11154;48.558;9.234;2022-10-19T10:10:36;98349.84;;;17.27;100.00
21980;BME280;11154;48.558;9.234;2022-10-19T10:12:39;98351.53;;;17.28;100.00
21980;BME280;11154;48.558;9.234;2022-10-19T10:14:43;98346.44;;;17.33;100.00
21980;BME280;11154;48.558;9.234;2022-10-19T10:16:45;98351.41;;;17.36;100.00
21980;BME280;11154;48.558;9.234;2022-10-19T10:18:52;98346.16;;;17.42;100.00
21980;BME280;11154;48.558;9.234;2022-10-19T10:20:57;98354.69;;;17.46;100.00
21980;BME280;11154;48.558;9.234;2022-10-19T10:23:01;98348.94;;;17.49;100.00
21980;BME280;11154;48.558;9.234;2022-10-19T10:25:11;98352.66;;;17.48;100.00
21980;BME280;11154;48.558;9.234;2022-10-19T10:27:28;98358.22;;;17.46;100.00
21980;BME280;11154;48.558;9.234;2022-10-19T10:29:33;98352.00;;;17.46;100.00
21980;BME280;11154;48.558;9.234;2022-10-19T10:31:36;98352.94;;;17.53;100.00
21980;BME280;11154;48.558;9.234;2022-10-19T10:33:38;98352.47;;;17.49;100.00
21980;BME280;11154;48.558;9.234;2022-10-19T10:35:45;98345.22;;;17.50;100.00
21980;BME280;11154;48.558;9.234;2022-10-19T10:37:48;98344.75;;;17.46;100.00
21980;BME280;11154;48.558;9.234;2022-10-19T10:39:51;98338.28;;;17.41;100.00
21980;BME280;11154;48.558;9.234;2022-10-19T10:41:54;98331.22;;;17.40;100.00
21980;BME280;11154;48.558;9.234;2022-10-19T10:44:00;98323.16;;;17.40;100.00
21980;BME280;11154;48.558;9.234;2022-10-19T10:46:04;98334.19;;;17.45;100.00
21980;BME280;11154;48.558;9.234;2022-10-19T10:48:17;98324.72;;;17.49;100.00